sensor_id;sensor_type;location;lat;lon;timestamp;pressure;altitude;pressure_sealevel;temperature;humidity
45357;BME280;31092;51.924;21.448;2023-05-02T00:01:25;100338.44;;;7.46;100.00
45357;BME280;31092;51.924;21.448;2023-05-02T00:03:50;100335.94;;;7.44;100.00
45357;BME280;31092;51.924;21.448;2023-05-02T00:06:15;100334.66;;;7.39;100.00
45357;BME280;31092;51.924;21.448;2023-05-02T00:08:41;100331.00;;;7.30;100.00
45357;BME280;31092;51.924;21.448;2023-05-02T00:11:06;100330.00;;;7.31;100.00
45357;BME280;31092;51.924;21.448;2023-05-02T00:13:31;100327.75;;;7.27;100.00
45357;BME280;31092;51.924;21.448;2023-05-02T00:15:57;100323.97;;;7.19;100.00
45357;BME280;31092;51.924;21.448;2023-05-02T00:18:22;100324.81;;;7.10;100.00
45357;BME280;31092;51.924;21.448;2023-05-02T00:20:48;100320.00;;;7.04;100.00
45357;BME280;31092;51.924;21.448;2023-05-02T00:23:17;100309.88;;;6.98;100.00
45357;BME280;31092;51.924;21.448;2023-05-02T00:25:45;100308.16;;;6.97;100.00
45357;BME280;31092;51.924;21.448;2023-05-02T00:28:10;100308.88;;;6.99;100.00
45357;BME280;31092;51.924;21.448;2023-05-02T00:30:41;100299.44;;;6.95;100.00
45357;BME280;31092;51.924;21.448;2023-05-02T00:33:06;100300.72;;;6.91;100.00
45357;BME280;31092;51.924;21.448;2023-05-02T00:35:32;100301.41;;;6.83;100.00
45357;BME280;31092;51.924;21.448;2023-05-02T00:37:58;100295.50;;;6.80;100.00
45357;BME280;31092;51.924;21.448;2023-05-02T00:40:23;100299.28;;;6.77;100.00
45357;BME280;31092;51.924;21.448;2023-05-02T00:42:48;100292.53;;;6.73;100.00
45357;BME280;31092;51.924;21.448;2023-05-02T00:45:14;100293.81;;;6.69;100.00
45357;BME280;31092;51.924;21.448;2023-05-02T00:47:39;100294.75;;;6.68;100.00
45357;BME280;31092;51.924;21.448;2023-05-02T00:50:05;100292.66;;;6.62;100.00
45357;BME280;31092;51.924;21.448;2023-05-02T00:52:30;100288.72;;;6.56;100.00
45357;BME280;31092;51.924;21.448;2023-05-02T00:54:56;100286.31;;;6.53;100.00
45357;BME280;31092;51.924;21.448;2023-05-02T00:57:22;100285.47;;;6.53;100.00
45357;BME280;31092;51.924;21.448;2023-05-02T00:59:47;100281.78;;;6.54;100.00
45357;BME280;31092;51.924;21.448;2023-05-02T01:14:54;100268.72;;;6.70;100.00
45357;BME280;31092;51.924;21.448;2023-05-02T01:17:21;100273.06;;;6.71;100.00
45357;BME280;31092;51.924;21.448;2023-05-02T01:19:52;100266.72;;;6.72;100.00
45357;BME280;31092;51.924;21.448;2023-05-02T01:22:19;100272.53;;;6.77;100.00
45357;BME280;31092;51.924;21.448;2023-05-02T01:29:37;100274.34;;;6.67;100.00
45357;BME280;31092;51.924;21.448;2023-05-02T01:32:05;100277.03;;;6.67;100.00
45357;BME280;31092;51.924;21.448;2023-05-02T01:34:32;100281.94;;;6.71;100.00
45357;BME280;31092;51.924;21.448;2023-05-02T01:36:58;100278.72;;;6.78;100.00
45357;BME280;31092;51.924;21.448;2023-05-02T01:39:25;100271.53;;;6.88;100.00
45357;BME280;31092;51.924;21.448;2023-05-02T01:41:52;100276.75;;;6.99;100.00
45357;BME280;31092;51.924;21.448;2023-05-02T01:44:18;100269.84;;;7.16;100.00
45357;BME280;31092;51.924;21.448;2023-05-02T01:46:44;100264.84;;;7.40;100.00
45357;BME280;31092;51.924;21.448;2023-05-02T01:49:10;100264.69;;;7.42;100.00
45357;BME280;31092;51.924;21.448;2023-05-02T01:51:36;100257.91;;;7.48;100.00
45357;BME280;31092;51.924;21.448;2023-05-02T01:54:06;100254.50;;;7.65;100.00
45357;BME280;31092;51.924;21.448;2023-05-02T01:56:35;100255.13;;;7.77;100.00
45357;BME280;31092;51.924;21.448;2023-05-02T01:59:04;100255.97;;;7.77;100.00
45357;BME280;31092;51.924;21.448;2023-05-02T02:01:30;100251.63;;;7.76;100.00
45357;BME280;31092;51.924;21.448;2023-05-02T02:03:56;100250.31;;;7.80;100.00
45357;BME280;31092;51.924;21.448;2023-05-02T02:06:22;100250.88;;;7.84;100.00
45357;BME280;31092;51.924;21.448;2023-05-02T02:08:48;100246.50;;;7.83;100.00
45357;BME280;31092;51.924;21.448;2023-05-02T02:11:15;100245.25;;;7.77;100.00
45357;BME280;31092;51.924;21.448;2023-05-02T02:13:47;100235.81;;;7.73;100.00
45357;BME280;31092;51.924;21.448;2023-05-02T02:16:13;100238.63;;;7.72;100.00
45357;BME280;31092;51.924;21.448;2023-05-02T02:18:43;100236.81;;;7.72;100.00
45357;BME280;31092;51.924;21.448;2023-05-02T02:21:09;100238.78;;;7.70;100.00
45357;BME280;31092;51.924;21.448;2023-05-02T02:23:35;100241.75;;;7.67;100.00
45357;BME280;31092;51.924;21.448;2023-05-02T02:26:02;100229.19;;;7.67;100.00
45357;BME280;31092;51.924;21.448;2023-05-02T02:28:29;100237.66;;;7.73;100.00
45357;BME280;31092;51.924;21.448;2023-05-02T02:30:54;100232.44;;;7.71;100.00
45357;BME280;31092;51.924;21.448;2023-05-02T02:33:28;100226.94;;;7.73;100.00
45357;BME280;31092;51.924;21.448;2023-05-02T02:35:55;100229.72;;;7.81;100.00
45357;BME280;31092;51.924;21.448;2023-05-02T02:38:27;100227.41;;;7.86;100.00
45357;BME280;31092;51.924;21.448;2023-05-02T02:40:56;100227.84;;;7.91;100.00
45357;BME280;31092;51.924;21.448;2023-05-02T02:51:37;100229.72;;;7.81;100.00
45357;BME280;31092;51.924;21.448;2023-05-02T02:54:49;100232.84;;;7.76;100.00
45357;BME280;31092;51.924;21.448;2023-05-02T02:56:56;100231.19;;;7.65;100.00
45357;BME280;31092;51.924;21.448;2023-05-02T02:59:23;100223.28;;;7.64;100.00
45357;BME280;31092;51.924;21.448;2023-05-02T03:01:54;100226.22;;;7.71;100.00
45357;BME280;31092;51.924;21.448;2023-05-02T03:04:21;100227.59;;;7.84;100.00
45357;BME280;31092;51.924;21.448;2023-05-02T03:06:46;100226.16;;;7.90;100.00
45357;BME280;31092;51.924;21.448;2023-05-02T03:09:15;100221.47;;;7.92;100.00
45357;BME280;31092;51.924;21.448;2023-05-02T03:11:43;100223.59;;;7.88;100.00
45357;BME280;31092;51.924;21.448;2023-05-02T03:14:10;100228.28;;;7.86;100.00
45357;BME280;31092;51.924;21.448;2023-05-02T03:16:36;100230.81;;;7.88;100.00
45357;BME280;31092;51.924;21.448;2023-05-02T03:19:03;100222.59;;;7.89;100.00
45357;BME280;31092;51.924;21.448;2023-05-02T03:21:29;100222.19;;;7.94;100.00
45357;BME280;31092;51.924;21.448;2023-05-02T03:23:57;100221.56;;;8.00;100.00
45357;BME280;31092;51.924;21.448;2023-05-02T03:26:22;100227.63;;;8.02;100.00
45357;BME280;31092;51.924;21.448;2023-05-02T03:28:47;100219.88;;;7.99;100.00
45357;BME280;31092;51.924;21.448;2023-05-02T03:31:14;100218.31;;;7.97;100.00
45357;BME280;31092;51.924;21.448;2023-05-02T03:33:39;100226.53;;;7.95;100.00
45357;BME280;31092;51.924;21.448;2023-05-02T03:36:05;100224.84;;;7.94;100.00
45357;BME280;31092;51.924;21.448;2023-05-02T03:38:31;100217.78;;;7.93;100.00
45357;BME280;31092;51.924;21.448;2023-05-02T03:40:56;100221.63;;;7.90;100.00
45357;BME280;31092;51.924;21.448;2023-05-02T03:43:31;100224.44;;;7.89;100.00
45357;BME280;31092;51.924;21.448;2023-05-02T03:46:04;100220.09;;;7.88;100.00
45357;BME280;31092;51.924;21.448;2023-05-02T03:48:30;100223.00;;;7.95;100.00
45357;BME280;31092;51.924;21.448;2023-05-02T03:50:55;100222.44;;;8.01;100.00
45357;BME280;31092;51.924;21.448;2023-05-02T03:53:21;100227.63;;;8.02;100.00
45357;BME280;31092;51.924;21.448;2023-05-02T03:55:46;100226.50;;;8.05;100.00
45357;BME280;31092;51.924;21.448;2023-05-02T03:58:12;100228.72;;;8.09;100.00
45357;BME280;31092;51.924;21.448;2023-05-02T04:00:37;100237.47;;;8.11;100.00
45357;BME280;31092;51.924;21.448;2023-05-02T04:03:02;100239.53;;;8.18;100.00
45357;BME280;31092;51.924;21.448;2023-05-02T04:05:28;100241.06;;;8.20;100.00
45357;BME280;31092;51.924;21.448;2023-05-02T04:07:54;100236.56;;;8.21;100.00
45357;BME280;31092;51.924;21.448;2023-05-02T04:10:19;100173.94;;;7.84;100.00
45357;BME280;31092;51.924;21.448;2023-05-02T04:12:45;100238.22;;;8.22;100.00
45357;BME280;31092;51.924;21.448;2023-05-02T04:15:10;100236.25;;;8.24;100.00
45357;BME280;31092;51.924;21.448;2023-05-02T04:17:36;100240.47;;;8.26;100.00
45357;BME280;31092;51.924;21.448;2023-05-02T04:20:01;100242.00;;;8.29;100.00
45357;BME280;31092;51.924;21.448;2023-05-02T04:22:27;100239.31;;;8.29;100.00
45357;BME280;31092;51.924;21.448;2023-05-02T04:24:52;100243.53;;;8.31;100.00
45357;BME280;31092;51.924;21.448;2023-05-02T04:27:18;100239.72;;;8.34;100.00
45357;BME280;31092;51.924;21.448;2023-05-02T04:29:46;100246.38;;;8.39;100.00
45357;BME280;31092;51.924;21.448;2023-05-02T04:32:11;100240.38;;;8.46;100.00
45357;BME280;31092;51.924;21.448;2023-05-02T04:34:37;100238.94;;;8.51;100.00
45357;BME280;31092;51.924;21.448;2023-05-02T04:37:02;100240.16;;;8.57;100.00
45357;BME280;31092;51.924;21.448;2023-05-02T04:39:28;100239.25;;;8.66;100.00
45357;BME280;31092;51.924;21.448;2023-05-02T04:41:53;100237.63;;;8.73;100.00
45357;BME280;31092;51.924;21.448;2023-05-02T04:44:18;100238.69;;;8.80;100.00
45357;BME280;31092;51.924;21.448;2023-05-02T04:46:44;100232.72;;;8.86;100.00
45357;BME280;31092;51.924;21.448;2023-05-02T04:49:10;100235.63;;;8.93;100.00
45357;BME280;31092;51.924;21.448;2023-05-02T04:51:35;100234.00;;;9.00;100.00
45357;BME280;31092;51.924;21.448;2023-05-02T04:54:00;100242.13;;;9.08;100.00
45357;BME280;31092;51.924;21.448;2023-05-02T04:56:26;100233.97;;;9.18;100.00
45357;BME280;31092;51.924;21.448;2023-05-02T04:58:51;100234.03;;;9.26;100.00
45357;BME280;31092;51.924;21.448;2023-05-02T05:01:16;100230.72;;;9.32;100.00
45357;BME280;31092;51.924;21.448;2023-05-02T05:03:42;100233.59;;;9.39;100.00
45357;BME280;31092;51.924;21.448;2023-05-02T05:06:07;100233.13;;;9.44;100.00
45357;BME280;31092;51.924;21.448;2023-05-02T05:08:33;100234.50;;;9.48;100.00
45357;BME280;31092;51.924;21.448;2023-05-02T05:10:58;100234.00;;;9.52;100.00
45357;BME280;31092;51.924;21.448;2023-05-02T05:13:23;100236.38;;;9.55;100.00
45357;BME280;31092;51.924;21.448;2023-05-02T05:15:49;100225.50;;;9.57;100.00
45357;BME280;31092;51.924;21.448;2023-05-02T05:18:15;100233.38;;;9.58;100.00
45357;BME280;31092;51.924;21.448;2023-05-02T05:20:40;100235.91;;;9.60;100.00
45357;BME280;31092;51.924;21.448;2023-05-02T05:23:06;100226.69;;;9.63;100.00
45357;BME280;31092;51.924;21.448;2023-05-02T05:25:31;100233.41;;;9.67;100.00
45357;BME280;31092;51.924;21.448;2023-05-02T05:28:00;100231.94;;;9.72;100.00
45357;BME280;31092;51.924;21.448;2023-05-02T05:30:26;100228.63;;;9.78;100.00
45357;BME280;31092;51.924;21.448;2023-05-02T05:32:51;100222.44;;;9.86;100.00
45357;BME280;31092;51.924;21.448;2023-05-02T05:35:17;100229.38;;;9.97;100.00
45357;BME280;31092;51.924;21.448;2023-05-02T05:37:42;100232.78;;;10.15;100.00
45357;BME280;31092;51.924;21.448;2023-05-02T05:40:08;100225.13;;;10.28;100.00
45357;BME280;31092;51.924;21.448;2023-05-02T05:42:34;100226.50;;;10.49;100.00
45357;BME280;31092;51.924;21.448;2023-05-02T05:44:59;100222.50;;;11.02;100.00
45357;BME280;31092;51.924;21.448;2023-05-02T05:47:25;100225.81;;;11.53;100.00
45357;BME280;31092;51.924;21.448;2023-05-02T05:49:54;100226.44;;;11.71;100.00
45357;BME280;31092;51.924;21.448;2023-05-02T05:52:19;100222.50;;;11.90;100.00
45357;BME280;31092;51.924;21.448;2023-05-02T05:54:44;100219.53;;;12.16;100.00
45357;BME280;31092;51.924;21.448;2023-05-02T05:57:10;100220.25;;;12.10;100.00
45357;BME280;31092;51.924;21.448;2023-05-02T05:59:35;100216.22;;;12.06;100.00
45357;BME280;31092;51.924;21.448;2023-05-02T06:02:01;100211.56;;;12.23;100.00
45357;BME280;31092;51.924;21.448;2023-05-02T06:04:26;100206.63;;;12.35;100.00
45357;BME280;31092;51.924;21.448;2023-05-02T06:06:51;100212.72;;;12.52;100.00
45357;BME280;31092;51.924;21.448;2023-05-02T06:09:18;100205.59;;;12.59;100.00
45357;BME280;31092;51.924;21.448;2023-05-02T06:11:43;100211.91;;;12.74;100.00
45357;BME280;31092;51.924;21.448;2023-05-02T06:14:09;100210.16;;;12.81;100.00
45357;BME280;31092;51.924;21.448;2023-05-02T06:16:34;100214.75;;;12.81;100.00
45357;BME280;31092;51.924;21.448;2023-05-02T06:19:00;100211.00;;;12.82;100.00
45357;BME280;31092;51.924;21.448;2023-05-02T06:21:25;100217.13;;;12.99;100.00
45357;BME280;31092;51.924;21.448;2023-05-02T06:23:51;100210.00;;;13.21;100.00
45357;BME280;31092;51.924;21.448;2023-05-02T06:26:16;100212.91;;;13.34;100.00
45357;BME280;31092;51.924;21.448;2023-05-02T06:28:41;100219.38;;;13.48;100.00
45357;BME280;31092;51.924;21.448;2023-05-02T06:31:08;100213.34;;;13.60;100.00
45357;BME280;31092;51.924;21.448;2023-05-02T06:33:34;100213.53;;;13.74;100.00
45357;BME280;31092;51.924;21.448;2023-05-02T06:35:59;100210.16;;;13.86;100.00
45357;BME280;31092;51.924;21.448;2023-05-02T06:38:24;100205.66;;;13.94;100.00
45357;BME280;31092;51.924;21.448;2023-05-02T06:40:50;100212.28;;;14.06;100.00
45357;BME280;31092;51.924;21.448;2023-05-02T06:43:16;100206.00;;;14.20;100.00
45357;BME280;31092;51.924;21.448;2023-05-02T06:45:42;100198.28;;;14.38;100.00
45357;BME280;31092;51.924;21.448;2023-05-02T06:48:07;100191.50;;;14.64;100.00
45357;BME280;31092;51.924;21.448;2023-05-02T06:50:33;100201.28;;;14.87;100.00
45357;BME280;31092;51.924;21.448;2023-05-02T06:52:59;100197.53;;;15.09;100.00
45357;BME280;31092;51.924;21.448;2023-05-02T06:55:24;100191.47;;;15.35;100.00
45357;BME280;31092;51.924;21.448;2023-05-02T06:57:49;100191.41;;;15.56;100.00
45357;BME280;31092;51.924;21.448;2023-05-02T07:00:15;100200.72;;;15.75;100.00
45357;BME280;31092;51.924;21.448;2023-05-02T07:02:41;100191.19;;;15.93;100.00
45357;BME280;31092;51.924;21.448;2023-05-02T07:05:06;100190.06;;;16.15;100.00
45357;BME280;31092;51.924;21.448;2023-05-02T07:07:32;100195.31;;;16.30;100.00
45357;BME280;31092;51.924;21.448;2023-05-02T07:09:57;100192.22;;;16.33;100.00
45357;BME280;31092;51.924;21.448;2023-05-02T07:12:22;100191.59;;;16.38;100.00
45357;BME280;31092;51.924;21.448;2023-05-02T07:14:48;100194.09;;;16.39;100.00
45357;BME280;31092;51.924;21.448;2023-05-02T07:17:13;100198.09;;;16.50;100.00
45357;BME280;31092;51.924;21.448;2023-05-02T07:19:39;100187.47;;;16.62;100.00
45357;BME280;31092;51.924;21.448;2023-05-02T07:22:05;100199.66;;;16.79;100.00
45357;BME280;31092;51.924;21.448;2023-05-02T07:24:31;100190.03;;;16.96;100.00
45357;BME280;31092;51.924;21.448;2023-05-02T07:26:56;100203.84;;;17.15;100.00
45357;BME280;31092;51.924;21.448;2023-05-02T07:29:21;100193.78;;;17.42;100.00
45357;BME280;31092;51.924;21.448;2023-05-02T07:31:47;100188.28;;;17.62;100.00
45357;BME280;31092;51.924;21.448;2023-05-02T07:34:12;100181.34;;;17.86;100.00
45357;BME280;31092;51.924;21.448;2023-05-02T07:36:37;100189.63;;;18.11;100.00
45357;BME280;31092;51.924;21.448;2023-05-02T07:39:03;100187.00;;;18.36;100.00
45357;BME280;31092;51.924;21.448;2023-05-02T07:41:28;100182.91;;;18.52;100.00
45357;BME280;31092;51.924;21.448;2023-05-02T07:43:54;100191.84;;;18.65;100.00
45357;BME280;31092;51.924;21.448;2023-05-02T07:46:19;100187.72;;;18.88;100.00
45357;BME280;31092;51.924;21.448;2023-05-02T07:48:45;100181.88;;;19.09;100.00
45357;BME280;31092;51.924;21.448;2023-05-02T07:51:10;100178.28;;;19.16;100.00
45357;BME280;31092;51.924;21.448;2023-05-02T07:53:36;100179.19;;;19.28;100.00
45357;BME280;31092;51.924;21.448;2023-05-02T07:56:04;100187.22;;;19.48;100.00
45357;BME280;31092;51.924;21.448;2023-05-02T07:58:35;100174.59;;;19.72;100.00
45357;BME280;31092;51.924;21.448;2023-05-02T08:01:01;100177.25;;;19.78;100.00
45357;BME280;31092;51.924;21.448;2023-05-02T08:03:27;100183.09;;;20.00;100.00
45357;BME280;31092;51.924;21.448;2023-05-02T08:05:53;100165.19;;;20.16;100.00
45357;BME280;31092;51.924;21.448;2023-05-02T08:08:18;100170.78;;;20.40;100.00
45357;BME280;31092;51.924;21.448;2023-05-02T08:10:43;100163.03;;;20.67;100.00
45357;BME280;31092;51.924;21.448;2023-05-02T08:13:10;100165.94;;;20.84;100.00
45357;BME280;31092;51.924;21.448;2023-05-02T08:15:35;100159.28;;;20.91;100.00
45357;BME280;31092;51.924;21.448;2023-05-02T08:18:01;100180.97;;;21.04;100.00
45357;BME280;31092;51.924;21.448;2023-05-02T08:20:26;100175.38;;;21.23;100.00
45357;BME280;31092;51.924;21.448;2023-05-02T08:22:51;100162.81;;;21.45;100.00
45357;BME280;31092;51.924;21.448;2023-05-02T08:25:17;100160.78;;;21.41;97.47
45357;BME280;31092;51.924;21.448;2023-05-02T08:27:42;100168.41;;;21.39;97.54
45357;BME280;31092;51.924;21.448;2023-05-02T08:30:07;100188.91;;;21.36;93.53
45357;BME280;31092;51.924;21.448;2023-05-02T08:32:33;100177.66;;;21.14;90.55
45357;BME280;31092;51.924;21.448;2023-05-02T08:34:59;100175.75;;;21.26;94.83
45357;BME280;31092;51.924;21.448;2023-05-02T08:37:25;100177.94;;;21.36;91.31
45357;BME280;31092;51.924;21.448;2023-05-02T08:39:50;100167.69;;;21.43;93.50
45357;BME280;31092;51.924;21.448;2023-05-02T08:42:15;100164.22;;;21.71;93.92
45357;BME280;31092;51.924;21.448;2023-05-02T08:44:41;100174.31;;;21.83;91.29
45357;BME280;31092;51.924;21.448;2023-05-02T08:47:06;100168.97;;;21.76;89.92
45357;BME280;31092;51.924;21.448;2023-05-02T08:49:34;100162.97;;;21.91;89.97
45357;BME280;31092;51.924;21.448;2023-05-02T08:52:01;100162.25;;;21.84;89.27
45357;BME280;31092;51.924;21.448;2023-05-02T08:54:26;100162.59;;;21.99;90.80
45357;BME280;31092;51.924;21.448;2023-05-02T08:56:53;100157.84;;;22.35;92.49
45357;BME280;31092;51.924;21.448;2023-05-02T08:59:19;100162.19;;;22.47;91.90
45357;BME280;31092;51.924;21.448;2023-05-02T09:01:44;100166.66;;;22.82;92.69
45357;BME280;31092;51.924;21.448;2023-05-02T09:04:12;100163.97;;;22.99;90.76
45357;BME280;31092;51.924;21.448;2023-05-02T09:06:38;100163.56;;;22.79;88.44
45357;BME280;31092;51.924;21.448;2023-05-02T09:09:04;100152.88;;;23.11;91.24
45357;BME280;31092;51.924;21.448;2023-05-02T09:11:29;100163.09;;;23.32;91.19
45357;BME280;31092;51.924;21.448;2023-05-02T09:13:54;100163.53;;;23.41;89.46
45357;BME280;31092;51.924;21.448;2023-05-02T09:16:23;100157.75;;;23.42;90.04
45357;BME280;31092;51.924;21.448;2023-05-02T09:21:21;100169.75;;;23.36;87.70
45357;BME280;31092;51.924;21.448;2023-05-02T09:23:51;100169.28;;;23.61;88.27
45357;BME280;31092;51.924;21.448;2023-05-02T09:26:18;100165.25;;;23.86;89.63
45357;BME280;31092;51.924;21.448;2023-05-02T09:28:50;100169.53;;;23.77;88.76
45357;BME280;31092;51.924;21.448;2023-05-02T09:31:17;100171.97;;;23.73;89.69
45357;BME280;31092;51.924;21.448;2023-05-02T09:33:43;100181.09;;;23.62;86.38
45357;BME280;31092;51.924;21.448;2023-05-02T09:36:10;100182.50;;;23.26;84.86
45357;BME280;31092;51.924;21.448;2023-05-02T09:38:36;100186.94;;;23.10;85.29
45357;BME280;31092;51.924;21.448;2023-05-02T09:41:02;100183.25;;;23.21;88.34
45357;BME280;31092;51.924;21.448;2023-05-02T09:43:29;100185.94;;;23.16;88.36
45357;BME280;31092;51.924;21.448;2023-05-02T09:45:55;100188.91;;;22.98;86.39
45357;BME280;31092;51.924;21.448;2023-05-02T09:48:21;100184.78;;;22.66;84.86
45357;BME280;31092;51.924;21.448;2023-05-02T09:50:46;100182.41;;;22.41;85.52
45357;BME280;31092;51.924;21.448;2023-05-02T09:53:12;100188.41;;;22.55;88.52
45357;BME280;31092;51.924;21.448;2023-05-02T09:55:37;100174.50;;;22.45;86.86
45357;BME280;31092;51.924;21.448;2023-05-02T09:58:02;100178.78;;;22.24;85.25
45357;BME280;31092;51.924;21.448;2023-05-02T10:03:23;100183.09;;;22.65;89.98
45357;BME280;31092;51.924;21.448;2023-05-02T10:05:49;100189.88;;;22.46;86.27
45357;BME280;31092;51.924;21.448;2023-05-02T10:08:15;100182.91;;;22.55;87.53
45357;BME280;31092;51.924;21.448;2023-05-02T10:10:44;100183.28;;;22.76;88.18
45357;BME280;31092;51.924;21.448;2023-05-02T10:13:10;100191.00;;;22.33;85.45
45357;BME280;31092;51.924;21.448;2023-05-02T10:15:41;100187.97;;;22.46;89.17
45357;BME280;31092;51.924;21.448;2023-05-02T10:18:14;100190.44;;;22.60;87.04
45357;BME280;31092;51.924;21.448;2023-05-02T10:20:53;100183.63;;;22.79;88.67
45357;BME280;31092;51.924;21.448;2023-05-02T10:23:20;100191.34;;;23.11;87.50
45357;BME280;31092;51.924;21.448;2023-05-02T10:25:46;100185.38;;;22.85;85.17
45357;BME280;31092;51.924;21.448;2023-05-02T10:28:12;100198.84;;;22.99;88.16
45357;BME280;31092;51.924;21.448;2023-05-02T10:30:38;100204.19;;;23.05;87.25
45357;BME280;31092;51.924;21.448;2023-05-02T10:33:04;100190.25;;;23.12;87.60
45357;BME280;31092;51.924;21.448;2023-05-02T10:35:30;100190.34;;;23.34;86.96
45357;BME280;31092;51.924;21.448;2023-05-02T10:37:56;100188.16;;;23.19;87.42
45357;BME280;31092;51.924;21.448;2023-05-02T10:40:23;100202.22;;;23.56;89.51
45357;BME280;31092;51.924;21.448;2023-05-02T10:42:48;100182.97;;;23.95;88.48
45357;BME280;31092;51.924;21.448;2023-05-02T10:45:32;100190.19;;;24.01;88.28
45357;BME280;31092;51.924;21.448;2023-05-02T10:48:13;100184.88;;;23.73;87.13
45357;BME280;31092;51.924;21.448;2023-05-02T10:50:43;100188.25;;;23.07;87.12
45357;BME280;31092;51.924;21.448;2023-05-02T10:53:43;100184.94;;;22.77;88.38
45357;BME280;31092;51.924;21.448;2023-05-02T10:58:38;100195.09;;;22.76;88.98
45357;BME280;31092;51.924;21.448;2023-05-02T11:01:46;100195.13;;;22.47;88.30
45357;BME280;31092;51.924;21.448;2023-05-02T11:03:53;100197.09;;;22.35;90.71
45357;BME280;31092;51.924;21.448;2023-05-02T11:06:19;100201.22;;;22.09;90.99
45357;BME280;31092;51.924;21.448;2023-05-02T11:08:44;100210.44;;;21.68;92.10
45357;BME280;31092;51.924;21.448;2023-05-02T11:13:54;100209.97;;;21.71;95.22
45357;BME280;31092;51.924;21.448;2023-05-02T11:16:19;100207.78;;;21.96;95.35
45357;BME280;31092;51.924;21.448;2023-05-02T11:18:57;100209.09;;;22.17;95.50
45357;BME280;31092;51.924;21.448;2023-05-02T11:21:24;100216.13;;;22.02;95.12
45357;BME280;31092;51.924;21.448;2023-05-02T11:23:51;100231.56;;;21.67;94.97
45357;BME280;31092;51.924;21.448;2023-05-02T11:26:19;100239.28;;;21.59;97.16
45357;BME280;31092;51.924;21.448;2023-05-02T11:28:46;100239.66;;;21.74;97.22
45357;BME280;31092;51.924;21.448;2023-05-02T11:33:56;100239.97;;;22.01;97.07
45357;BME280;31092;51.924;21.448;2023-05-02T11:38:47;100255.13;;;21.68;100.00
45357;BME280;31092;51.924;21.448;2023-05-02T11:41:15;100258.09;;;21.43;100.00
45357;BME280;31092;51.924;21.448;2023-05-02T11:43:40;100259.34;;;21.17;100.00
45357;BME280;31092;51.924;21.448;2023-05-02T11:46:06;100263.63;;;21.13;100.00
45357;BME280;31092;51.924;21.448;2023-05-02T11:48:31;100274.47;;;21.20;100.00
45357;BME280;31092;51.924;21.448;2023-05-02T11:50:57;100285.22;;;21.33;100.00
45357;BME280;31092;51.924;21.448;2023-05-02T11:53:26;100282.66;;;21.08;100.00
45357;BME280;31092;51.924;21.448;2023-05-02T11:56:00;100288.13;;;20.96;100.00
45357;BME280;31092;51.924;21.448;2023-05-02T11:58:26;100277.63;;;20.93;100.00
45357;BME280;31092;51.924;21.448;2023-05-02T12:00:56;100277.81;;;20.80;100.00
45357;BME280;31092;51.924;21.448;2023-05-02T12:03:29;100289.22;;;20.77;100.00
45357;BME280;31092;51.924;21.448;2023-05-02T12:05:55;100299.75;;;20.62;100.00
45357;BME280;31092;51.924;21.448;2023-05-02T12:08:22;100292.81;;;20.22;100.00
45357;BME280;31092;51.924;21.448;2023-05-02T12:10:48;100297.00;;;20.43;100.00
45357;BME280;31092;51.924;21.448;2023-05-02T12:13:16;100311.28;;;20.82;100.00
45357;BME280;31092;51.924;21.448;2023-05-02T12:15:41;100305.75;;;21.00;100.00
45357;BME280;31092;51.924;21.448;2023-05-02T12:18:07;100315.53;;;21.08;100.00
45357;BME280;31092;51.924;21.448;2023-05-02T12:20:32;100314.50;;;20.61;100.00
45357;BME280;31092;51.924;21.448;2023-05-02T12:22:58;100328.63;;;20.21;100.00
45357;BME280;31092;51.924;21.448;2023-05-02T12:25:24;100328.72;;;19.89;100.00
45357;BME280;31092;51.924;21.448;2023-05-02T12:27:59;100328.09;;;19.62;100.00
45357;BME280;31092;51.924;21.448;2023-05-02T12:30:27;100344.31;;;19.57;100.00
45357;BME280;31092;51.924;21.448;2023-05-02T12:32:57;100338.03;;;20.25;100.00
45357;BME280;31092;51.924;21.448;2023-05-02T12:35:23;100343.81;;;20.72;100.00
45357;BME280;31092;51.924;21.448;2023-05-02T12:37:48;100342.44;;;20.63;100.00
45357;BME280;31092;51.924;21.448;2023-05-02T12:40:14;100344.53;;;20.05;100.00
45357;BME280;31092;51.924;21.448;2023-05-02T12:42:40;100341.72;;;19.94;100.00
45357;BME280;31092;51.924;21.448;2023-05-02T12:45:16;100349.97;;;19.87;100.00
45357;BME280;31092;51.924;21.448;2023-05-02T12:47:44;100357.50;;;19.67;100.00
45357;BME280;31092;51.924;21.448;2023-05-02T12:50:13;100358.66;;;19.46;100.00
45357;BME280;31092;51.924;21.448;2023-05-02T12:52:47;100357.63;;;19.47;100.00
45357;BME280;31092;51.924;21.448;2023-05-02T12:55:19;100353.94;;;19.66;100.00
45357;BME280;31092;51.924;21.448;2023-05-02T12:57:45;100364.47;;;19.63;100.00
45357;BME280;31092;51.924;21.448;2023-05-02T13:00:11;100366.44;;;19.49;100.00
45357;BME280;31092;51.924;21.448;2023-05-02T13:02:37;100378.06;;;19.37;100.00
45357;BME280;31092;51.924;21.448;2023-05-02T13:05:12;100376.94;;;19.13;100.00
45357;BME280;31092;51.924;21.448;2023-05-02T13:07:38;100369.41;;;19.09;100.00
45357;BME280;31092;51.924;21.448;2023-05-02T13:10:03;100374.53;;;18.92;100.00
45357;BME280;31092;51.924;21.448;2023-05-02T13:12:29;100381.53;;;18.75;100.00
45357;BME280;31092;51.924;21.448;2023-05-02T13:14:54;100377.38;;;18.59;100.00